createdAt,value
2017-12-25T00:01:49.395Z,1.40
2017-12-25T00:04:17.839Z,1.90
2017-12-25T00:06:46.583Z,2.83
2017-12-25T00:09:15.751Z,2.97
2017-12-25T00:11:44.458Z,1.83
2017-12-25T00:14:13.046Z,2.77
2017-12-25T00:16:41.430Z,2.10
2017-12-25T00:19:10.598Z,2.53
2017-12-25T00:21:39.143Z,1.60
2017-12-25T00:24:07.532Z,1.63
2017-12-25T00:26:36.173Z,2.03
2017-12-25T00:29:05.464Z,0.83
2017-12-25T00:31:33.859Z,1.30
2017-12-25T00:34:03.461Z,2.20
2017-12-25T00:36:32.684Z,2.07
2017-12-25T00:39:01.071Z,1.63
2017-12-25T00:41:29.462Z,2.20
2017-12-25T00:43:58.013Z,1.47
2017-12-25T00:46:26.398Z,1.50
2017-12-25T00:48:54.876Z,1.33
2017-12-25T00:51:23.677Z,2.20
2017-12-25T00:53:52.052Z,1.27
2017-12-25T00:56:20.427Z,1.80
2017-12-25T00:58:49.136Z,2.00
2017-12-25T01:01:17.812Z,1.27
2017-12-25T01:03:46.176Z,0.80
2017-12-25T01:06:14.752Z,1.20
2017-12-25T01:08:43.968Z,1.10
2017-12-25T01:11:12.348Z,2.00
2017-12-25T01:13:40.937Z,1.40
2017-12-25T01:16:09.313Z,1.30
2017-12-25T01:18:37.690Z,1.40
2017-12-25T01:21:06.379Z,0.70
2017-12-25T01:23:34.746Z,1.37
2017-12-25T01:26:03.203Z,1.00
2017-12-25T01:28:32.455Z,1.00
2017-12-25T01:31:01.187Z,1.17
2017-12-25T01:33:29.584Z,1.30
2017-12-25T01:35:58.483Z,0.70
2017-12-25T01:38:26.874Z,1.20
2017-12-25T01:40:55.257Z,0.80
2017-12-25T01:43:23.845Z,1.03
2017-12-25T01:45:53.168Z,1.40
2017-12-25T01:48:21.558Z,1.10
2017-12-25T01:50:51.000Z,0.80
2017-12-25T01:53:19.429Z,0.83
2017-12-25T01:55:47.852Z,0.90
2017-12-25T01:58:22.886Z,0.93
2017-12-25T02:04:21.320Z,0.97
2017-12-25T02:07:01.461Z,0.93
2017-12-25T02:09:29.866Z,1.33
2017-12-25T02:11:58.544Z,1.00
2017-12-25T02:14:26.947Z,0.90
2017-12-25T02:16:55.746Z,0.77
2017-12-25T02:19:24.114Z,1.20
2017-12-25T02:21:52.532Z,0.53
2017-12-25T02:24:21.846Z,0.70
2017-12-25T02:26:50.245Z,1.27
2017-12-25T02:29:19.440Z,1.87
2017-12-25T02:31:47.878Z,0.97
2017-12-25T02:34:17.006Z,0.70
2017-12-25T02:36:45.626Z,0.93
2017-12-25T02:39:14.050Z,0.90
2017-12-25T02:41:43.195Z,1.23
2017-12-25T02:44:11.565Z,1.00
2017-12-25T02:46:39.973Z,0.83
2017-12-25T02:49:09.158Z,1.03
2017-12-25T02:51:37.544Z,0.90
2017-12-25T02:54:06.132Z,0.80
2017-12-25T02:56:34.522Z,1.10
2017-12-25T02:59:02.933Z,1.00
2017-12-25T03:01:31.780Z,0.90
2017-12-25T03:04:00.158Z,0.90
2017-12-25T03:06:28.543Z,0.90
2017-12-25T03:08:57.106Z,0.63
2017-12-25T03:11:25.487Z,0.97
2017-12-25T03:13:53.906Z,0.83
2017-12-25T03:16:23.309Z,1.60
2017-12-25T03:18:52.467Z,1.17
2017-12-25T03:21:20.844Z,0.90
2017-12-25T03:23:49.360Z,1.07
2017-12-25T03:26:18.819Z,1.10
2017-12-25T03:28:47.238Z,1.53
2017-12-25T03:31:15.801Z,1.10
2017-12-25T03:33:44.188Z,1.10
2017-12-25T03:36:12.597Z,1.00
2017-12-25T03:38:42.055Z,1.13
2017-12-25T03:41:11.213Z,0.90
2017-12-25T03:43:39.602Z,1.00
2017-12-25T03:46:08.011Z,1.20
2017-12-25T03:48:36.376Z,1.20
2017-12-25T03:51:04.961Z,0.90
2017-12-25T03:53:33.672Z,0.70
2017-12-25T03:56:02.052Z,1.67
2017-12-25T03:58:30.452Z,1.23
2017-12-25T04:00:59.744Z,0.50
2017-12-25T04:03:28.923Z,1.00
2017-12-25T04:05:57.325Z,1.10
2017-12-25T04:08:26.520Z,1.30
2017-12-25T04:10:55.672Z,1.00
2017-12-25T04:13:24.130Z,1.20
2017-12-25T04:15:53.083Z,0.80
2017-12-25T04:18:21.476Z,1.20
2017-12-25T04:20:50.615Z,1.10
2017-12-25T04:23:19.034Z,1.10
2017-12-25T04:25:47.421Z,0.90
2017-12-25T04:28:15.806Z,0.67
2017-12-25T04:30:44.983Z,0.90
2017-12-25T04:33:13.363Z,0.70
2017-12-25T04:35:41.807Z,0.60
2017-12-25T04:38:10.230Z,0.80
2017-12-25T04:40:39.026Z,0.80
2017-12-25T04:43:08.181Z,0.70
2017-12-25T04:45:36.905Z,0.37
2017-12-25T04:48:05.326Z,0.70
2017-12-25T04:50:33.706Z,0.80
2017-12-25T04:53:02.147Z,0.83
2017-12-25T04:55:30.535Z,0.87
2017-12-25T04:57:59.690Z,0.83
2017-12-25T05:00:28.110Z,0.70
2017-12-25T05:02:57.267Z,0.93
2017-12-25T05:05:25.700Z,0.47
2017-12-25T05:07:54.892Z,0.80
2017-12-25T05:10:24.044Z,0.70
2017-12-25T05:12:52.432Z,0.87
2017-12-25T05:15:21.138Z,0.63
2017-12-25T05:17:50.287Z,0.50
2017-12-25T05:20:18.676Z,0.60
2017-12-25T05:22:47.113Z,1.00
2017-12-25T05:25:15.510Z,0.90
2017-12-25T05:27:43.885Z,0.60
2017-12-25T05:30:12.496Z,1.00
2017-12-25T05:32:40.866Z,0.37
2017-12-25T05:35:09.255Z,0.80
2017-12-25T05:37:37.754Z,0.73
2017-12-25T05:40:06.202Z,1.00
2017-12-25T05:42:34.869Z,0.87
2017-12-25T05:45:03.276Z,0.90
2017-12-25T05:47:31.668Z,1.03
2017-12-25T05:50:00.085Z,1.10
2017-12-25T05:52:29.385Z,1.63
2017-12-25T05:54:58.613Z,0.63
2017-12-25T05:57:26.994Z,0.80
2017-12-25T05:59:55.399Z,1.00
2017-12-25T06:02:23.768Z,1.10
2017-12-25T06:04:52.158Z,0.60
2017-12-25T06:07:20.713Z,1.17
2017-12-25T06:09:49.111Z,1.10
2017-12-25T06:12:18.248Z,1.03
2017-12-25T06:14:46.825Z,0.73
2017-12-25T06:17:15.231Z,1.20
2017-12-25T06:19:44.699Z,0.90
2017-12-25T06:22:13.302Z,0.83
2017-12-25T06:24:41.701Z,0.93
2017-12-25T06:27:10.875Z,1.03
2017-12-25T06:29:39.412Z,1.60
2017-12-25T06:32:07.810Z,1.30
2017-12-25T06:34:36.167Z,1.60
2017-12-25T06:37:04.595Z,1.10
2017-12-25T06:39:32.972Z,0.80
2017-12-25T06:42:01.362Z,1.03
2017-12-25T06:44:31.034Z,1.10
2017-12-25T06:46:59.435Z,1.27
2017-12-25T06:49:27.836Z,1.00
2017-12-25T06:51:56.300Z,1.07
2017-12-25T06:54:24.729Z,0.93
2017-12-25T06:56:53.192Z,0.93
2017-12-25T06:59:21.902Z,1.30
2017-12-25T07:01:51.118Z,1.20
2017-12-25T07:04:19.499Z,1.00
2017-12-25T07:06:48.024Z,1.20
2017-12-25T07:09:17.578Z,0.97
2017-12-25T07:11:45.964Z,0.77
2017-12-25T07:14:14.391Z,0.87
2017-12-25T07:16:42.760Z,1.40
2017-12-25T07:19:11.919Z,1.30
2017-12-25T07:21:40.541Z,1.03
2017-12-25T07:24:09.679Z,1.30
2017-12-25T07:26:38.077Z,1.53
2017-12-25T07:29:06.653Z,0.70
2017-12-25T07:31:35.795Z,1.40
2017-12-25T07:34:05.099Z,1.00
2017-12-25T07:36:34.430Z,0.83
2017-12-25T07:39:02.801Z,1.73
2017-12-25T07:41:31.179Z,1.70
2017-12-25T07:43:59.907Z,1.00
2017-12-25T07:46:28.772Z,0.60
2017-12-25T07:48:57.163Z,0.60
2017-12-25T07:51:25.597Z,0.60
2017-12-25T07:53:53.987Z,0.67
2017-12-25T07:56:22.361Z,0.77
2017-12-25T07:58:50.940Z,0.70
2017-12-25T08:01:20.088Z,0.50
2017-12-25T08:03:48.468Z,1.13
2017-12-25T08:06:17.019Z,0.87
2017-12-25T08:08:45.379Z,0.60
2017-12-25T08:11:13.796Z,0.50
2017-12-25T08:13:42.338Z,1.00
2017-12-25T08:16:10.768Z,0.63
2017-12-25T08:18:39.128Z,1.03
2017-12-25T08:21:07.570Z,0.50
2017-12-25T08:23:36.792Z,0.70
2017-12-25T08:26:05.213Z,0.43
2017-12-25T08:28:33.647Z,0.73
2017-12-25T08:31:02.017Z,0.90
2017-12-25T08:33:30.399Z,0.83
2017-12-25T08:35:58.973Z,1.00
2017-12-25T08:38:27.381Z,1.00
2017-12-25T08:40:55.765Z,0.97
2017-12-25T08:43:24.319Z,1.17
2017-12-25T08:45:52.697Z,0.73
2017-12-25T08:48:21.408Z,0.60
2017-12-25T08:50:50.143Z,0.90
2017-12-25T08:53:19.301Z,1.03
2017-12-25T08:55:47.692Z,1.03
2017-12-25T08:58:16.108Z,0.77
2017-12-25T09:00:45.300Z,1.30
2017-12-25T09:03:13.693Z,1.00
2017-12-25T09:05:42.244Z,1.03
2017-12-25T09:08:10.631Z,0.90
2017-12-25T09:10:38.991Z,0.90
2017-12-25T09:13:07.695Z,0.60
2017-12-25T09:15:36.063Z,0.90
2017-12-25T09:18:04.465Z,0.60
2017-12-25T09:20:33.664Z,1.00
2017-12-25T09:23:02.790Z,1.30
2017-12-25T09:25:31.206Z,0.83
2017-12-25T09:27:59.634Z,0.80
2017-12-25T09:30:28.016Z,0.93
2017-12-25T09:32:56.410Z,1.00
2017-12-25T09:35:24.849Z,0.97
2017-12-25T09:37:53.653Z,0.77
2017-12-25T09:40:22.025Z,0.80
2017-12-25T09:42:51.206Z,1.30
2017-12-25T09:45:19.575Z,0.83
2017-12-25T09:47:47.958Z,1.10
2017-12-25T09:50:16.716Z,0.70
2017-12-25T09:52:45.112Z,1.07
2017-12-25T09:55:13.512Z,0.70
2017-12-25T09:57:42.035Z,0.67
2017-12-25T10:00:10.434Z,0.80
2017-12-25T10:02:39.004Z,0.57
2017-12-25T10:05:07.453Z,0.93
2017-12-25T10:07:36.626Z,0.87
2017-12-25T10:10:05.002Z,0.77
2017-12-25T10:12:33.563Z,0.50
2017-12-25T10:15:01.947Z,0.50
2017-12-25T10:17:30.328Z,0.80
2017-12-25T10:19:58.749Z,0.80
2017-12-25T10:22:27.950Z,0.60
2017-12-25T10:24:57.092Z,0.50
2017-12-25T10:27:26.106Z,0.50
2017-12-25T10:29:54.511Z,0.50
2017-12-25T10:32:24.168Z,0.80
2017-12-25T10:34:52.680Z,1.03
2017-12-25T10:37:21.095Z,0.80
2017-12-25T10:39:49.478Z,1.57
2017-12-25T10:42:17.906Z,1.00
2017-12-25T10:44:46.273Z,1.07
2017-12-25T10:47:14.656Z,1.20
2017-12-25T10:49:43.295Z,1.53
2017-12-25T10:52:12.845Z,1.43
2017-12-25T10:54:41.211Z,2.37
2017-12-25T10:57:09.716Z,2.87
2017-12-25T10:59:38.096Z,2.40
2017-12-25T11:02:07.242Z,2.53
2017-12-25T11:04:35.721Z,1.70
2017-12-25T11:07:04.133Z,1.67
2017-12-25T11:09:32.521Z,2.20
2017-12-25T11:12:01.849Z,2.77
2017-12-25T11:14:30.222Z,2.13
2017-12-25T11:16:58.776Z,2.30
2017-12-25T11:19:27.489Z,2.70
2017-12-25T11:21:56.655Z,1.43
2017-12-25T11:24:25.074Z,1.43
2017-12-25T11:26:53.488Z,1.60
2017-12-25T11:29:21.877Z,1.00
2017-12-25T11:31:50.242Z,1.37
2017-12-25T11:34:18.750Z,2.03
2017-12-25T11:36:47.132Z,1.20
2017-12-25T11:39:15.507Z,2.17
2017-12-25T11:41:44.193Z,1.07
2017-12-25T11:44:12.574Z,1.40
2017-12-25T11:46:40.958Z,1.60
2017-12-25T11:49:09.380Z,2.10
2017-12-25T11:51:37.764Z,2.00
2017-12-25T11:54:07.656Z,1.57
2017-12-25T11:56:36.197Z,1.33
2017-12-25T11:59:05.343Z,1.13
2017-12-25T12:01:33.727Z,1.23
2017-12-25T12:04:02.151Z,1.27
2017-12-25T12:06:30.832Z,1.90
2017-12-25T12:08:59.224Z,1.23
2017-12-25T12:11:27.646Z,1.83
2017-12-25T12:13:56.032Z,1.77
2017-12-25T12:16:24.435Z,1.50
2017-12-25T12:18:52.879Z,1.57
2017-12-25T12:21:21.264Z,1.60
2017-12-25T12:23:49.653Z,1.10
2017-12-25T12:26:19.016Z,1.07
2017-12-25T12:28:47.406Z,2.13
2017-12-25T12:31:15.969Z,1.50
2017-12-25T12:33:44.595Z,0.80
2017-12-25T12:36:14.078Z,1.13
2017-12-25T12:38:42.481Z,1.97
2017-12-25T12:41:11.683Z,1.13
2017-12-25T12:43:40.884Z,1.33
2017-12-25T12:46:10.009Z,1.97
2017-12-25T12:48:38.482Z,2.10
2017-12-25T12:51:06.908Z,1.83
2017-12-25T12:53:35.281Z,2.33
2017-12-25T12:56:04.605Z,2.07
2017-12-25T12:58:32.974Z,1.63
2017-12-25T13:01:01.340Z,1.90
2017-12-25T13:03:29.905Z,1.97
2017-12-25T13:05:58.279Z,1.97
2017-12-25T13:08:26.681Z,1.70
2017-12-25T13:10:55.196Z,1.67
2017-12-25T13:13:23.572Z,1.80
2017-12-25T13:15:52.720Z,1.90
2017-12-25T13:18:21.343Z,1.70
2017-12-25T13:20:49.833Z,1.70
2017-12-25T13:23:18.980Z,1.97
2017-12-25T13:25:47.534Z,0.67
2017-12-25T13:28:15.932Z,2.00
2017-12-25T13:30:44.322Z,1.80
2017-12-25T13:33:12.874Z,2.17
2017-12-25T13:35:42.030Z,2.30
2017-12-25T13:38:10.415Z,1.50
2017-12-25T13:40:38.858Z,1.60
2017-12-25T13:43:07.224Z,2.33
2017-12-25T13:45:35.655Z,1.00
2017-12-25T13:48:04.147Z,1.37
2017-12-25T13:50:33.315Z,1.30
2017-12-25T13:53:01.737Z,1.83
2017-12-25T13:55:31.028Z,1.50
2017-12-25T13:58:00.489Z,1.43
2017-12-25T14:00:28.964Z,1.30
2017-12-25T14:02:57.493Z,1.60
2017-12-25T14:05:25.872Z,1.87
2017-12-25T14:07:55.060Z,1.13
2017-12-25T14:10:23.920Z,1.57
2017-12-25T14:12:52.364Z,1.67
2017-12-25T14:15:20.816Z,1.60
2017-12-25T14:17:49.255Z,1.23
2017-12-25T14:20:17.627Z,2.10
2017-12-25T14:22:46.025Z,1.97
2017-12-25T14:25:14.442Z,2.00
2017-12-25T14:27:43.601Z,1.80
2017-12-25T14:30:11.964Z,2.10
2017-12-25T14:32:40.401Z,1.17
2017-12-25T14:35:09.760Z,1.00
2017-12-25T14:37:38.138Z,1.27
2017-12-25T14:40:06.575Z,1.33
2017-12-25T14:42:34.950Z,1.80
2017-12-25T14:45:03.336Z,1.30
2017-12-25T14:47:32.077Z,1.50
2017-12-25T14:50:00.513Z,1.50
2017-12-25T14:52:28.912Z,2.10
2017-12-25T14:54:57.343Z,2.53
2017-12-25T14:57:26.481Z,1.90
2017-12-25T14:59:55.189Z,1.83
2017-12-25T15:02:23.624Z,1.43
2017-12-25T15:04:51.996Z,2.20
2017-12-25T15:07:20.373Z,2.20
2017-12-25T15:09:49.686Z,3.13
2017-12-25T15:12:18.122Z,1.67
2017-12-25T15:14:46.514Z,2.40
2017-12-25T15:17:15.910Z,2.33
2017-12-25T15:19:44.274Z,2.70
2017-12-25T15:22:13.179Z,2.27
2017-12-25T15:24:41.852Z,2.23
2017-12-25T15:27:10.223Z,2.80
2017-12-25T15:29:38.613Z,3.30
2017-12-25T15:32:07.068Z,3.13
2017-12-25T15:34:35.442Z,2.70
2017-12-25T15:37:03.854Z,3.43
2017-12-25T15:39:32.443Z,4.27
2017-12-25T15:42:00.823Z,4.87
2017-12-25T15:44:29.206Z,2.70
2017-12-25T15:46:57.678Z,3.70
2017-12-25T15:49:26.245Z,3.37
2017-12-25T15:51:54.625Z,3.27
2017-12-25T15:54:23.828Z,4.30
2017-12-25T15:56:52.197Z,4.07
2017-12-25T15:59:20.560Z,3.17
2017-12-25T16:01:49.301Z,4.53
2017-12-25T16:04:18.452Z,3.53
2017-12-25T16:06:46.826Z,2.80
2017-12-25T16:09:15.527Z,4.60
2017-12-25T16:11:43.982Z,3.93
2017-12-25T16:14:12.580Z,2.70
2017-12-25T16:16:41.186Z,3.67
2017-12-25T16:19:09.578Z,4.03
2017-12-25T16:21:37.970Z,2.70
2017-12-25T16:24:07.173Z,3.10
2017-12-25T16:26:36.333Z,2.50
2017-12-25T16:29:04.757Z,2.77
2017-12-25T16:31:33.241Z,2.40
2017-12-25T16:34:01.645Z,2.10
2017-12-25T16:36:30.024Z,2.67
2017-12-25T16:38:58.866Z,2.43
2017-12-25T16:41:28.010Z,3.10
2017-12-25T16:43:56.405Z,3.07
2017-12-25T16:46:24.843Z,2.93
2017-12-25T16:48:54.018Z,1.87
2017-12-25T16:51:23.219Z,2.97
2017-12-25T16:53:52.755Z,2.27
2017-12-25T16:56:21.166Z,2.27
2017-12-25T16:58:49.536Z,2.73
2017-12-25T17:01:18.126Z,2.17
2017-12-25T17:03:47.050Z,2.53
2017-12-25T17:06:15.432Z,3.10
2017-12-25T17:08:44.710Z,3.23
2017-12-25T17:11:13.098Z,2.40
2017-12-25T17:13:41.496Z,3.13
2017-12-25T17:16:10.872Z,2.03
2017-12-25T17:18:39.294Z,3.60
2017-12-25T17:21:07.666Z,2.43
2017-12-25T17:23:36.323Z,2.67
2017-12-25T17:26:05.460Z,3.03
2017-12-25T17:28:33.960Z,3.57
2017-12-25T17:31:02.371Z,3.87
2017-12-25T17:33:30.772Z,3.43
2017-12-25T17:35:59.920Z,4.53
2017-12-25T17:38:28.554Z,3.63
2017-12-25T17:40:57.718Z,4.57
2017-12-25T17:43:26.108Z,4.60
2017-12-25T17:45:54.610Z,4.57
2017-12-25T17:48:23.749Z,5.63
2017-12-25T17:50:52.127Z,5.30
2017-12-25T17:53:20.998Z,9.03
2017-12-25T17:55:49.392Z,9.97
2017-12-25T17:58:17.779Z,5.40
2017-12-25T18:00:46.249Z,6.43
2017-12-25T18:03:14.640Z,7.73
2017-12-25T18:05:43.345Z,6.73
2017-12-25T18:08:11.768Z,7.77
2017-12-25T18:10:40.148Z,9.03
2017-12-25T18:13:09.296Z,8.00
2017-12-25T18:15:38.123Z,5.77
2017-12-25T18:18:07.503Z,9.83
2017-12-25T18:20:35.899Z,11.63
2017-12-25T18:23:05.213Z,9.77
2017-12-25T18:25:34.366Z,6.17
2017-12-25T18:28:02.776Z,8.73
2017-12-25T18:30:31.386Z,12.90
2017-12-25T18:32:59.797Z,8.60
2017-12-25T18:35:28.201Z,10.67
2017-12-25T18:37:56.808Z,7.83
2017-12-25T18:40:26.032Z,10.07
2017-12-25T18:42:54.753Z,8.80
2017-12-25T18:45:23.188Z,10.20
2017-12-25T18:47:51.560Z,9.33
2017-12-25T18:50:20.720Z,8.60
2017-12-25T18:52:49.279Z,10.80
2017-12-25T18:55:17.707Z,8.70
2017-12-25T18:57:46.875Z,9.97
2017-12-25T19:00:15.671Z,12.17
2017-12-25T19:02:44.056Z,9.77
2017-12-25T19:05:12.456Z,9.00
2017-12-25T19:07:42.161Z,10.03
2017-12-25T19:10:11.306Z,10.90
2017-12-25T19:12:40.481Z,11.80
2017-12-25T19:15:08.935Z,15.30
2017-12-25T19:17:38.101Z,9.73
2017-12-25T19:20:07.331Z,11.93
2017-12-25T19:22:36.823Z,12.30
2017-12-25T19:25:05.969Z,9.17
2017-12-25T19:27:34.348Z,11.83
2017-12-25T19:30:02.847Z,11.10
2017-12-25T19:32:31.358Z,13.87
2017-12-25T19:34:59.795Z,7.07
2017-12-25T19:37:28.533Z,10.43
2017-12-25T19:39:57.707Z,7.80
2017-12-25T19:42:26.867Z,9.73
2017-12-25T19:44:55.412Z,8.30
2017-12-25T19:47:24.578Z,12.43
2017-12-25T19:49:52.987Z,7.60
2017-12-25T19:52:21.409Z,14.23
2017-12-25T19:54:49.832Z,15.60
2017-12-25T19:57:18.517Z,11.00
2017-12-25T19:59:46.968Z,6.97
2017-12-25T20:02:15.367Z,11.53
2017-12-25T20:04:43.764Z,11.33
2017-12-25T20:07:12.275Z,7.63
2017-12-25T20:09:41.934Z,11.27
2017-12-25T20:12:10.315Z,8.63
2017-12-25T20:14:38.931Z,12.30
2017-12-25T20:17:07.316Z,11.40
2017-12-25T20:19:36.471Z,9.30
2017-12-25T20:22:05.035Z,11.97
2017-12-25T20:24:33.434Z,10.80
2017-12-25T20:27:01.837Z,9.83
2017-12-25T20:29:31.178Z,10.50
2017-12-25T20:31:59.673Z,8.83
2017-12-25T20:34:28.097Z,10.70
2017-12-25T20:36:56.678Z,10.00
2017-12-25T20:39:25.129Z,10.97
2017-12-25T20:41:53.542Z,10.07
2017-12-25T20:44:22.744Z,5.87
2017-12-25T20:46:51.189Z,10.97
2017-12-25T20:49:19.580Z,8.90
2017-12-25T20:51:48.011Z,10.70
2017-12-25T20:54:16.399Z,9.47
2017-12-25T20:56:44.763Z,9.30
2017-12-25T20:59:14.051Z,7.73
2017-12-25T21:01:43.212Z,4.83
2017-12-25T21:04:11.583Z,6.67
2017-12-25T21:06:40.046Z,8.33
2017-12-25T21:09:08.419Z,7.23
2017-12-25T21:11:37.634Z,7.17
2017-12-25T21:14:06.072Z,7.73
2017-12-25T21:16:34.468Z,6.70
2017-12-25T21:19:02.869Z,7.33
2017-12-25T21:21:31.542Z,7.43
2017-12-25T21:23:59.994Z,10.27
2017-12-25T21:26:28.380Z,11.90
2017-12-25T21:28:56.832Z,10.10
2017-12-25T21:31:25.217Z,6.37
2017-12-25T21:33:54.393Z,8.67
2017-12-25T21:36:23.011Z,10.10
2017-12-25T21:38:52.143Z,7.87
2017-12-25T21:41:20.526Z,7.40
2017-12-25T21:43:48.942Z,11.70
2017-12-25T21:46:17.333Z,8.80
2017-12-25T21:48:45.738Z,8.67
2017-12-25T21:51:14.226Z,7.30
2017-12-25T21:53:42.620Z,7.07
2017-12-25T21:56:11.001Z,8.93
2017-12-25T21:58:39.840Z,7.77
2017-12-25T22:01:09.059Z,9.43
2017-12-25T22:03:38.199Z,10.77
2017-12-25T22:06:06.748Z,10.97
2017-12-25T22:08:35.128Z,11.30
2017-12-25T22:11:03.511Z,11.73
2017-12-25T22:13:32.675Z,9.73
2017-12-25T22:16:01.816Z,13.00
2017-12-25T22:18:30.200Z,10.83
2017-12-25T22:20:58.626Z,8.03
2017-12-25T22:23:27.038Z,11.83
2017-12-25T22:25:55.746Z,7.83
2017-12-25T22:28:24.195Z,9.40
2017-12-25T22:30:52.565Z,13.73
2017-12-25T22:33:20.969Z,9.90
2017-12-25T22:35:50.142Z,13.53
2017-12-25T22:38:18.555Z,10.60
2017-12-25T22:40:46.940Z,11.47
2017-12-25T22:43:15.499Z,11.57
2017-12-25T22:45:43.913Z,10.33
2017-12-25T22:48:12.293Z,12.57
2017-12-25T22:50:40.958Z,11.00
2017-12-25T22:53:09.466Z,12.47
2017-12-25T22:55:37.856Z,10.03
2017-12-25T22:58:06.267Z,7.63
2017-12-25T23:00:35.445Z,5.70
2017-12-25T23:03:03.851Z,10.20
2017-12-25T23:05:32.291Z,12.27
2017-12-25T23:08:00.692Z,11.60
2017-12-25T23:10:29.846Z,9.37
2017-12-25T23:12:58.401Z,10.50
2017-12-25T23:15:27.279Z,12.93
2017-12-25T23:17:55.724Z,12.50
2017-12-25T23:20:24.293Z,12.03
2017-12-25T23:22:52.687Z,11.47
2017-12-25T23:25:21.079Z,9.93
2017-12-25T23:27:50.343Z,10.57
2017-12-25T23:30:18.739Z,12.00
2017-12-25T23:32:47.127Z,13.60
2017-12-25T23:35:15.557Z,13.67
2017-12-25T23:37:43.943Z,14.90
2017-12-25T23:40:12.397Z,9.20
2017-12-25T23:42:41.114Z,10.63
2017-12-25T23:45:09.494Z,10.30
2017-12-25T23:47:37.893Z,11.87
2017-12-25T23:50:06.337Z,7.23
2017-12-25T23:52:34.764Z,11.93
2017-12-25T23:55:03.164Z,14.23
2017-12-25T23:57:32.367Z,11.87
